sensor_id;sensor_type;location;lat;lon;timestamp;temperature;humidity
59703;DHT22;45570;48.782;8.332;2023-05-07T05:08:51;13.90;99.90
59703;DHT22;45570;48.782;8.332;2023-05-07T05:26:46;14.10;99.90
59703;DHT22;45570;48.782;8.332;2023-05-07T05:41:28;14.20;99.90
59703;DHT22;45570;48.782;8.332;2023-05-07T05:43:58;14.30;99.90
59703;DHT22;45570;48.782;8.332;2023-05-07T05:46:28;14.40;99.90
59703;DHT22;45570;48.782;8.332;2023-05-07T05:48:57;14.50;99.90
59703;DHT22;45570;48.782;8.332;2023-05-07T05:51:28;14.50;99.90
59703;DHT22;45570;48.782;8.332;2023-05-07T05:53:58;14.70;99.90
59703;DHT22;45570;48.782;8.332;2023-05-07T05:56:32;14.80;99.90
59703;DHT22;45570;48.782;8.332;2023-05-07T05:59:05;15.10;99.90
59703;DHT22;45570;48.782;8.332;2023-05-07T06:01:35;15.30;99.90
59703;DHT22;45570;48.782;8.332;2023-05-07T06:04:07;15.70;99.90
59703;DHT22;45570;48.782;8.332;2023-05-07T06:06:39;16.10;99.90
59703;DHT22;45570;48.782;8.332;2023-05-07T06:09:11;16.50;99.90
59703;DHT22;45570;48.782;8.332;2023-05-07T06:11:48;16.80;99.90
59703;DHT22;45570;48.782;8.332;2023-05-07T06:14:21;17.10;99.90
59703;DHT22;45570;48.782;8.332;2023-05-07T06:16:51;17.40;99.90
59703;DHT22;45570;48.782;8.332;2023-05-07T06:19:25;17.70;99.90
59703;DHT22;45570;48.782;8.332;2023-05-07T06:21:57;18.00;99.90
59703;DHT22;45570;48.782;8.332;2023-05-07T06:24:31;18.10;99.90
59703;DHT22;45570;48.782;8.332;2023-05-07T06:27:02;18.20;99.90
59703;DHT22;45570;48.782;8.332;2023-05-07T06:29:32;18.30;99.90
59703;DHT22;45570;48.782;8.332;2023-05-07T06:32:07;18.50;99.90
59703;DHT22;45570;48.782;8.332;2023-05-07T06:34:39;18.50;99.90
59703;DHT22;45570;48.782;8.332;2023-05-07T06:37:09;18.70;99.90
59703;DHT22;45570;48.782;8.332;2023-05-07T06:39:51;18.90;99.90
59703;DHT22;45570;48.782;8.332;2023-05-07T06:42:23;19.10;99.90
59703;DHT22;45570;48.782;8.332;2023-05-07T06:44:58;19.30;99.90
59703;DHT22;45570;48.782;8.332;2023-05-07T06:47:30;19.30;99.90
59703;DHT22;45570;48.782;8.332;2023-05-07T06:49:59;19.20;99.90
59703;DHT22;45570;48.782;8.332;2023-05-07T06:52:33;19.10;99.90
59703;DHT22;45570;48.782;8.332;2023-05-07T06:55:06;18.90;99.90
59703;DHT22;45570;48.782;8.332;2023-05-07T06:57:37;18.90;99.90
59703;DHT22;45570;48.782;8.332;2023-05-07T07:00:08;18.80;99.90
59703;DHT22;45570;48.782;8.332;2023-05-07T07:02:48;18.70;99.90
59703;DHT22;45570;48.782;8.332;2023-05-07T07:05:21;18.70;99.90
59703;DHT22;45570;48.782;8.332;2023-05-07T07:07:52;18.60;99.90
59703;DHT22;45570;48.782;8.332;2023-05-07T07:10:22;18.60;99.90
59703;DHT22;45570;48.782;8.332;2023-05-07T07:13:23;18.70;99.90
59703;DHT22;45570;48.782;8.332;2023-05-07T07:15:53;18.80;99.90
59703;DHT22;45570;48.782;8.332;2023-05-07T07:18:22;19.10;99.90
59703;DHT22;45570;48.782;8.332;2023-05-07T07:20:52;19.30;99.90
59703;DHT22;45570;48.782;8.332;2023-05-07T07:23:23;19.30;99.90
59703;DHT22;45570;48.782;8.332;2023-05-07T07:25:53;19.30;99.90
59703;DHT22;45570;48.782;8.332;2023-05-07T07:28:23;19.60;99.90
59703;DHT22;45570;48.782;8.332;2023-05-07T07:30:53;19.70;99.90
59703;DHT22;45570;48.782;8.332;2023-05-07T07:33:22;19.30;99.90
59703;DHT22;45570;48.782;8.332;2023-05-07T07:35:52;19.30;99.90
59703;DHT22;45570;48.782;8.332;2023-05-07T07:38:21;19.40;99.90
59703;DHT22;45570;48.782;8.332;2023-05-07T07:40:51;19.90;99.90
59703;DHT22;45570;48.782;8.332;2023-05-07T07:43:20;20.30;99.90
59703;DHT22;45570;48.782;8.332;2023-05-07T07:45:51;20.50;99.90
59703;DHT22;45570;48.782;8.332;2023-05-07T07:48:21;20.40;99.90
59703;DHT22;45570;48.782;8.332;2023-05-07T07:50:51;20.50;99.90
59703;DHT22;45570;48.782;8.332;2023-05-07T07:53:20;20.60;99.90
59703;DHT22;45570;48.782;8.332;2023-05-07T07:55:49;20.50;99.90
59703;DHT22;45570;48.782;8.332;2023-05-07T07:58:27;20.70;99.90
59703;DHT22;45570;48.782;8.332;2023-05-07T08:00:58;20.80;99.90
59703;DHT22;45570;48.782;8.332;2023-05-07T08:03:27;20.80;99.90
59703;DHT22;45570;48.782;8.332;2023-05-07T08:06:01;20.90;99.90
59703;DHT22;45570;48.782;8.332;2023-05-07T08:08:31;20.80;99.90
59703;DHT22;45570;48.782;8.332;2023-05-07T08:11:01;21.20;99.90
59703;DHT22;45570;48.782;8.332;2023-05-07T08:13:32;21.50;99.90
59703;DHT22;45570;48.782;8.332;2023-05-07T08:16:04;21.60;99.90
59703;DHT22;45570;48.782;8.332;2023-05-07T08:18:35;21.50;99.90
59703;DHT22;45570;48.782;8.332;2023-05-07T08:21:04;21.20;99.90
59703;DHT22;45570;48.782;8.332;2023-05-07T08:23:33;21.20;99.90
59703;DHT22;45570;48.782;8.332;2023-05-07T08:26:04;21.50;99.90
59703;DHT22;45570;48.782;8.332;2023-05-07T08:28:33;22.00;99.90
59703;DHT22;45570;48.782;8.332;2023-05-07T08:31:04;22.10;99.90
59703;DHT22;45570;48.782;8.332;2023-05-07T08:33:36;22.40;99.90
59703;DHT22;45570;48.782;8.332;2023-05-07T08:36:06;22.40;99.90
59703;DHT22;45570;48.782;8.332;2023-05-07T08:38:35;22.30;99.90
59703;DHT22;45570;48.782;8.332;2023-05-07T08:41:04;22.10;99.90
59703;DHT22;45570;48.782;8.332;2023-05-07T08:43:37;22.30;99.90
59703;DHT22;45570;48.782;8.332;2023-05-07T08:46:18;22.70;99.90
59703;DHT22;45570;48.782;8.332;2023-05-07T08:49:00;22.70;99.90
59703;DHT22;45570;48.782;8.332;2023-05-07T08:51:33;22.30;99.90
59703;DHT22;45570;48.782;8.332;2023-05-07T08:54:37;21.90;99.90
59703;DHT22;45570;48.782;8.332;2023-05-07T08:57:26;22.20;99.90
59703;DHT22;45570;48.782;8.332;2023-05-07T09:14:30;22.90;99.90
59703;DHT22;45570;48.782;8.332;2023-05-07T09:17:01;23.00;99.90
59703;DHT22;45570;48.782;8.332;2023-05-07T09:19:35;23.20;99.90
59703;DHT22;45570;48.782;8.332;2023-05-07T09:22:07;23.10;99.90
59703;DHT22;45570;48.782;8.332;2023-05-07T09:24:54;23.00;99.90
59703;DHT22;45570;48.782;8.332;2023-05-07T09:27:26;23.40;99.90
59703;DHT22;45570;48.782;8.332;2023-05-07T09:29:58;23.20;99.90
59703;DHT22;45570;48.782;8.332;2023-05-07T09:32:27;22.80;99.90
59703;DHT22;45570;48.782;8.332;2023-05-07T09:35:00;23.00;99.90
59703;DHT22;45570;48.782;8.332;2023-05-07T09:37:31;23.30;99.90
59703;DHT22;45570;48.782;8.332;2023-05-07T09:40:02;23.10;99.90
59703;DHT22;45570;48.782;8.332;2023-05-07T13:08:52;23.40;99.90
59703;DHT22;45570;48.782;8.332;2023-05-07T13:11:26;23.30;99.90
59703;DHT22;45570;48.782;8.332;2023-05-07T13:14:01;23.00;99.90
59703;DHT22;45570;48.782;8.332;2023-05-07T13:16:40;22.60;99.90
59703;DHT22;45570;48.782;8.332;2023-05-07T13:19:20;22.40;99.90
59703;DHT22;45570;48.782;8.332;2023-05-07T13:21:59;22.20;99.90
59703;DHT22;45570;48.782;8.332;2023-05-07T13:24:32;21.80;99.90
59703;DHT22;45570;48.782;8.332;2023-05-07T13:27:08;21.60;99.90
59703;DHT22;45570;48.782;8.332;2023-05-07T13:29:42;21.30;99.90
59703;DHT22;45570;48.782;8.332;2023-05-07T13:32:26;20.90;99.90
59703;DHT22;45570;48.782;8.332;2023-05-07T13:35:03;20.70;99.90
59703;DHT22;45570;48.782;8.332;2023-05-07T13:37:38;20.50;99.90
59703;DHT22;45570;48.782;8.332;2023-05-07T13:40:13;20.30;99.90
59703;DHT22;45570;48.782;8.332;2023-05-07T13:42:58;20.20;99.90
59703;DHT22;45570;48.782;8.332;2023-05-07T13:45:35;20.00;99.90
59703;DHT22;45570;48.782;8.332;2023-05-07T13:48:07;19.90;99.90
59703;DHT22;45570;48.782;8.332;2023-05-07T13:50:47;19.90;99.90
59703;DHT22;45570;48.782;8.332;2023-05-07T13:53:23;19.80;99.90
59703;DHT22;45570;48.782;8.332;2023-05-07T13:55:55;19.60;99.90
59703;DHT22;45570;48.782;8.332;2023-05-07T13:58:29;19.60;99.90
59703;DHT22;45570;48.782;8.332;2023-05-07T14:01:26;19.50;99.90
59703;DHT22;45570;48.782;8.332;2023-05-07T14:04:02;19.50;99.90
59703;DHT22;45570;48.782;8.332;2023-05-07T14:06:45;19.50;99.90
59703;DHT22;45570;48.782;8.332;2023-05-07T14:09:18;19.20;99.90
59703;DHT22;45570;48.782;8.332;2023-05-07T14:12:00;19.10;99.90
59703;DHT22;45570;48.782;8.332;2023-05-07T14:14:38;19.00;99.90
59703;DHT22;45570;48.782;8.332;2023-05-07T14:17:16;18.90;99.90
59703;DHT22;45570;48.782;8.332;2023-05-07T14:20:00;18.90;99.90
59703;DHT22;45570;48.782;8.332;2023-05-07T14:22:41;19.10;99.90
59703;DHT22;45570;48.782;8.332;2023-05-07T14:25:13;19.20;99.90
59703;DHT22;45570;48.782;8.332;2023-05-07T14:27:51;19.30;99.90
59703;DHT22;45570;48.782;8.332;2023-05-07T14:30:23;19.30;99.90
59703;DHT22;45570;48.782;8.332;2023-05-07T14:32:55;19.40;99.90
59703;DHT22;45570;48.782;8.332;2023-05-07T14:35:28;19.20;99.90
59703;DHT22;45570;48.782;8.332;2023-05-07T14:38:07;18.90;99.90
59703;DHT22;45570;48.782;8.332;2023-05-07T14:40:41;18.70;99.90
59703;DHT22;45570;48.782;8.332;2023-05-07T14:43:17;18.70;99.90
59703;DHT22;45570;48.782;8.332;2023-05-07T14:45:51;18.70;99.90
59703;DHT22;45570;48.782;8.332;2023-05-07T14:48:31;18.80;99.90
59703;DHT22;45570;48.782;8.332;2023-05-07T14:51:05;18.60;99.90
59703;DHT22;45570;48.782;8.332;2023-05-07T14:54:15;18.80;99.90
59703;DHT22;45570;48.782;8.332;2023-05-07T14:56:50;18.90;99.90
59703;DHT22;45570;48.782;8.332;2023-05-07T14:59:33;19.00;99.90
59703;DHT22;45570;48.782;8.332;2023-05-07T15:02:07;19.10;99.90
59703;DHT22;45570;48.782;8.332;2023-05-07T15:04:43;19.20;99.90
59703;DHT22;45570;48.782;8.332;2023-05-07T15:07:27;19.10;99.90
59703;DHT22;45570;48.782;8.332;2023-05-07T15:10:10;19.10;99.90
59703;DHT22;45570;48.782;8.332;2023-05-07T15:12:45;19.20;99.90
59703;DHT22;45570;48.782;8.332;2023-05-07T15:15:17;19.10;99.90
59703;DHT22;45570;48.782;8.332;2023-05-07T15:17:54;19.10;99.90
59703;DHT22;45570;48.782;8.332;2023-05-07T15:20:44;19.00;99.90
59703;DHT22;45570;48.782;8.332;2023-05-07T15:23:16;19.00;99.90
59703;DHT22;45570;48.782;8.332;2023-05-07T15:25:54;18.90;99.90
59703;DHT22;45570;48.782;8.332;2023-05-07T15:28:28;18.90;99.90
59703;DHT22;45570;48.782;8.332;2023-05-07T15:31:02;18.80;99.90
59703;DHT22;45570;48.782;8.332;2023-05-07T15:33:39;18.70;99.90
59703;DHT22;45570;48.782;8.332;2023-05-07T15:36:21;18.60;99.90
59703;DHT22;45570;48.782;8.332;2023-05-07T15:38:57;18.50;99.90
59703;DHT22;45570;48.782;8.332;2023-05-07T15:41:46;18.50;99.90
59703;DHT22;45570;48.782;8.332;2023-05-07T15:44:26;18.40;99.90
59703;DHT22;45570;48.782;8.332;2023-05-07T15:47:08;18.40;99.90
59703;DHT22;45570;48.782;8.332;2023-05-07T15:49:47;18.30;99.90
59703;DHT22;45570;48.782;8.332;2023-05-07T15:52:21;18.20;99.90
59703;DHT22;45570;48.782;8.332;2023-05-07T15:54:58;18.30;99.90
59703;DHT22;45570;48.782;8.332;2023-05-07T15:57:32;18.20;99.90
59703;DHT22;45570;48.782;8.332;2023-05-07T16:00:07;18.10;99.90
59703;DHT22;45570;48.782;8.332;2023-05-07T16:02:50;18.10;99.90
59703;DHT22;45570;48.782;8.332;2023-05-07T16:05:27;18.00;99.90
59703;DHT22;45570;48.782;8.332;2023-05-07T16:08:03;17.90;99.90
59703;DHT22;45570;48.782;8.332;2023-05-07T16:10:38;17.80;99.90
59703;DHT22;45570;48.782;8.332;2023-05-07T16:13:17;17.80;99.90
59703;DHT22;45570;48.782;8.332;2023-05-07T16:15:55;17.70;99.90
59703;DHT22;45570;48.782;8.332;2023-05-07T16:18:30;17.80;99.90
59703;DHT22;45570;48.782;8.332;2023-05-07T16:21:06;17.70;99.90
59703;DHT22;45570;48.782;8.332;2023-05-07T16:23:38;17.60;99.90
59703;DHT22;45570;48.782;8.332;2023-05-07T16:26:11;17.50;99.90
59703;DHT22;45570;48.782;8.332;2023-05-07T16:28:44;17.40;99.90
59703;DHT22;45570;48.782;8.332;2023-05-07T16:31:19;17.30;99.90
59703;DHT22;45570;48.782;8.332;2023-05-07T16:33:51;17.30;99.90
59703;DHT22;45570;48.782;8.332;2023-05-07T16:36:26;17.20;99.90
59703;DHT22;45570;48.782;8.332;2023-05-07T16:38:59;17.00;99.90
59703;DHT22;45570;48.782;8.332;2023-05-07T16:41:32;17.00;99.90
59703;DHT22;45570;48.782;8.332;2023-05-07T16:44:07;16.80;99.90
59703;DHT22;45570;48.782;8.332;2023-05-07T16:46:41;16.80;99.90
59703;DHT22;45570;48.782;8.332;2023-05-07T16:49:15;16.70;99.90
59703;DHT22;45570;48.782;8.332;2023-05-07T16:51:47;16.60;99.90
59703;DHT22;45570;48.782;8.332;2023-05-07T16:54:21;16.60;99.90
59703;DHT22;45570;48.782;8.332;2023-05-07T16:57:04;16.50;99.90
59703;DHT22;45570;48.782;8.332;2023-05-07T16:59:40;16.50;99.90
59703;DHT22;45570;48.782;8.332;2023-05-07T17:02:12;16.40;99.90
59703;DHT22;45570;48.782;8.332;2023-05-07T17:04:46;16.50;99.90
59703;DHT22;45570;48.782;8.332;2023-05-07T17:07:20;16.40;99.90
59703;DHT22;45570;48.782;8.332;2023-05-07T17:09:52;16.30;99.90
59703;DHT22;45570;48.782;8.332;2023-05-07T17:12:25;16.30;99.90
59703;DHT22;45570;48.782;8.332;2023-05-07T17:15:04;16.30;99.90
59703;DHT22;45570;48.782;8.332;2023-05-07T17:17:38;16.30;99.90
59703;DHT22;45570;48.782;8.332;2023-05-07T17:20:13;16.30;99.90
59703;DHT22;45570;48.782;8.332;2023-05-07T17:22:52;16.30;99.90
59703;DHT22;45570;48.782;8.332;2023-05-07T17:25:25;16.30;99.90
59703;DHT22;45570;48.782;8.332;2023-05-07T17:27:57;16.20;99.90
59703;DHT22;45570;48.782;8.332;2023-05-07T17:30:33;16.20;99.90
59703;DHT22;45570;48.782;8.332;2023-05-07T17:33:05;16.20;99.90
59703;DHT22;45570;48.782;8.332;2023-05-07T17:35:50;16.20;99.90
59703;DHT22;45570;48.782;8.332;2023-05-07T17:38:26;16.20;99.90
59703;DHT22;45570;48.782;8.332;2023-05-07T17:40:59;16.20;99.90
59703;DHT22;45570;48.782;8.332;2023-05-07T17:43:32;16.20;99.90
59703;DHT22;45570;48.782;8.332;2023-05-07T17:50:18;16.10;99.90
59703;DHT22;45570;48.782;8.332;2023-05-07T17:52:51;16.10;99.90
59703;DHT22;45570;48.782;8.332;2023-05-07T17:55:28;16.10;99.90
59703;DHT22;45570;48.782;8.332;2023-05-07T17:58:03;16.10;99.90
59703;DHT22;45570;48.782;8.332;2023-05-07T18:00:35;16.10;99.90
59703;DHT22;45570;48.782;8.332;2023-05-07T18:03:07;16.10;99.90
59703;DHT22;45570;48.782;8.332;2023-05-07T18:05:43;16.00;99.90
59703;DHT22;45570;48.782;8.332;2023-05-07T18:08:17;16.10;99.90
59703;DHT22;45570;48.782;8.332;2023-05-07T18:10:51;16.10;99.90
59703;DHT22;45570;48.782;8.332;2023-05-07T18:13:46;16.10;99.90
59703;DHT22;45570;48.782;8.332;2023-05-07T18:16:49;16.10;99.90
59703;DHT22;45570;48.782;8.332;2023-05-07T18:19:27;16.00;99.90
59703;DHT22;45570;48.782;8.332;2023-05-07T18:22:03;16.00;99.90
59703;DHT22;45570;48.782;8.332;2023-05-07T18:24:37;16.00;99.90
59703;DHT22;45570;48.782;8.332;2023-05-07T18:27:10;15.90;99.90
59703;DHT22;45570;48.782;8.332;2023-05-07T18:29:44;15.90;99.90
59703;DHT22;45570;48.782;8.332;2023-05-07T18:32:16;15.80;99.90
59703;DHT22;45570;48.782;8.332;2023-05-07T18:34:53;15.70;99.90
59703;DHT22;45570;48.782;8.332;2023-05-07T18:37:28;15.70;99.90
59703;DHT22;45570;48.782;8.332;2023-05-07T18:40:03;15.70;99.90
59703;DHT22;45570;48.782;8.332;2023-05-07T18:42:40;15.60;99.90
59703;DHT22;45570;48.782;8.332;2023-05-07T18:45:17;15.60;99.90
59703;DHT22;45570;48.782;8.332;2023-05-07T18:47:51;15.50;99.90
59703;DHT22;45570;48.782;8.332;2023-05-07T18:50:24;15.50;99.90
59703;DHT22;45570;48.782;8.332;2023-05-07T18:53:09;15.40;99.90
59703;DHT22;45570;48.782;8.332;2023-05-07T18:55:49;15.40;99.90
59703;DHT22;45570;48.782;8.332;2023-05-07T18:58:25;15.30;99.90
59703;DHT22;45570;48.782;8.332;2023-05-07T19:01:00;15.30;99.90
59703;DHT22;45570;48.782;8.332;2023-05-07T19:03:54;15.30;99.90
59703;DHT22;45570;48.782;8.332;2023-05-07T19:06:31;15.30;99.90
59703;DHT22;45570;48.782;8.332;2023-05-07T19:09:11;15.30;99.90
59703;DHT22;45570;48.782;8.332;2023-05-07T19:11:48;15.20;99.90
59703;DHT22;45570;48.782;8.332;2023-05-07T19:14:22;15.20;99.90
59703;DHT22;45570;48.782;8.332;2023-05-07T19:16:57;15.20;99.90
59703;DHT22;45570;48.782;8.332;2023-05-07T19:19:36;15.10;99.90
59703;DHT22;45570;48.782;8.332;2023-05-07T19:22:08;15.10;99.90
59703;DHT22;45570;48.782;8.332;2023-05-07T19:24:43;15.10;99.90
59703;DHT22;45570;48.782;8.332;2023-05-07T19:27:18;15.10;99.90
59703;DHT22;45570;48.782;8.332;2023-05-07T19:29:51;15.10;99.90
59703;DHT22;45570;48.782;8.332;2023-05-07T19:32:27;15.10;99.90
59703;DHT22;45570;48.782;8.332;2023-05-07T19:35:11;15.00;99.90
59703;DHT22;45570;48.782;8.332;2023-05-07T19:37:49;15.00;99.90
59703;DHT22;45570;48.782;8.332;2023-05-07T19:40:27;15.00;99.90
59703;DHT22;45570;48.782;8.332;2023-05-07T19:42:59;15.00;99.90
59703;DHT22;45570;48.782;8.332;2023-05-07T19:45:33;15.00;99.90
59703;DHT22;45570;48.782;8.332;2023-05-07T19:48:08;15.00;99.90
59703;DHT22;45570;48.782;8.332;2023-05-07T19:50:46;15.00;99.90
59703;DHT22;45570;48.782;8.332;2023-05-07T19:53:23;15.00;99.90
59703;DHT22;45570;48.782;8.332;2023-05-07T19:56:13;15.10;99.90
59703;DHT22;45570;48.782;8.332;2023-05-07T19:58:45;15.00;99.90
59703;DHT22;45570;48.782;8.332;2023-05-07T20:01:20;15.00;99.90
59703;DHT22;45570;48.782;8.332;2023-05-07T20:03:58;15.00;99.90
59703;DHT22;45570;48.782;8.332;2023-05-07T20:06:31;15.00;99.90
59703;DHT22;45570;48.782;8.332;2023-05-07T20:09:04;15.00;99.90
59703;DHT22;45570;48.782;8.332;2023-05-07T20:11:43;14.90;99.90
59703;DHT22;45570;48.782;8.332;2023-05-07T20:14:33;14.90;99.90
59703;DHT22;45570;48.782;8.332;2023-05-07T20:17:29;14.90;99.90
59703;DHT22;45570;48.782;8.332;2023-05-07T20:20:04;14.90;99.90
59703;DHT22;45570;48.782;8.332;2023-05-07T20:22:39;14.90;99.90
59703;DHT22;45570;48.782;8.332;2023-05-07T20:25:13;14.90;99.90
59703;DHT22;45570;48.782;8.332;2023-05-07T20:27:49;15.00;99.90
59703;DHT22;45570;48.782;8.332;2023-05-07T20:30:21;14.90;99.90
59703;DHT22;45570;48.782;8.332;2023-05-07T20:32:55;14.90;99.90
59703;DHT22;45570;48.782;8.332;2023-05-07T20:35:29;14.90;99.90
59703;DHT22;45570;48.782;8.332;2023-05-07T20:38:01;14.90;99.90
59703;DHT22;45570;48.782;8.332;2023-05-07T20:40:36;14.90;99.90
59703;DHT22;45570;48.782;8.332;2023-05-07T20:43:11;14.90;99.90
59703;DHT22;45570;48.782;8.332;2023-05-07T20:45:45;14.90;99.90
59703;DHT22;45570;48.782;8.332;2023-05-07T20:48:18;14.90;99.90
59703;DHT22;45570;48.782;8.332;2023-05-07T20:50:50;14.90;99.90
59703;DHT22;45570;48.782;8.332;2023-05-07T20:53:23;14.80;99.90
59703;DHT22;45570;48.782;8.332;2023-05-07T20:55:57;14.90;99.90
59703;DHT22;45570;48.782;8.332;2023-05-07T20:58:34;14.90;99.90
59703;DHT22;45570;48.782;8.332;2023-05-07T21:01:08;14.80;99.90
59703;DHT22;45570;48.782;8.332;2023-05-07T21:03:42;14.80;99.90
59703;DHT22;45570;48.782;8.332;2023-05-07T21:06:14;14.80;99.90
59703;DHT22;45570;48.782;8.332;2023-05-07T21:08:46;14.80;99.90
59703;DHT22;45570;48.782;8.332;2023-05-07T21:11:19;14.80;99.90
59703;DHT22;45570;48.782;8.332;2023-05-07T21:13:53;14.80;99.90
59703;DHT22;45570;48.782;8.332;2023-05-07T21:16:26;14.80;99.90
59703;DHT22;45570;48.782;8.332;2023-05-07T21:19:00;14.80;99.90
59703;DHT22;45570;48.782;8.332;2023-05-07T21:21:33;14.90;99.90
59703;DHT22;45570;48.782;8.332;2023-05-07T21:24:07;14.80;99.90
59703;DHT22;45570;48.782;8.332;2023-05-07T21:26:40;14.90;99.90
59703;DHT22;45570;48.782;8.332;2023-05-07T21:29:16;14.90;99.90
59703;DHT22;45570;48.782;8.332;2023-05-07T21:31:49;14.90;99.90
